Time;durP1;ratioP1;P1;durP2;ratioP2;P2;SDS_P1;SDS_P2;PMS_P1;PMS_P2;Temp;Humidity;BMP_temperature;BMP_pressure;BME280_temperature;BME280_humidity;BME280_pressure;Samples;Min_cycle;Max_cycle;Signal;HPM_P1;HPM_P2
2023/04/07 00:01:02;;;;;;;12.88;8.65;;;6.50;99.90;;;5.63;100.00;97677.53;5006563;28;20056;-70
2023/04/07 00:03:29;;;;;;;10.93;8.35;;;6.50;99.90;;;5.68;100.00;97672.28;5007157;28;20053;-70
2023/04/07 00:05:57;;;;;;;11.45;8.57;;;6.60;99.90;;;5.62;100.00;97668.97;5004014;28;20057;-69
2023/04/07 00:08:24;;;;;;;13.88;7.75;;;6.60;99.90;;;5.66;100.00;97672.34;4992758;28;20046;-70
2023/04/07 00:10:51;;;;;;;12.55;8.65;;;6.50;99.90;;;5.63;100.00;97664.66;4991910;28;20057;-69
2023/04/07 00:13:18;;;;;;;11.38;8.18;;;6.50;99.90;;;5.65;100.00;97668.91;5007146;28;20169;-69
2023/04/07 00:15:45;;;;;;;14.75;8.63;;;6.50;99.90;;;5.64;100.00;97664.66;5004405;28;20252;-70
2023/04/07 00:18:12;;;;;;;12.63;8.73;;;6.60;99.90;;;5.66;100.00;97662.88;5005166;28;20054;-70
2023/04/07 00:20:39;;;;;;;11.75;8.50;;;6.50;99.90;;;5.62;100.00;97663.00;5003499;28;20061;-69
2023/04/07 00:23:06;;;;;;;15.52;9.48;;;6.50;99.90;;;5.61;100.00;97658.69;5004231;28;20425;-70
2023/04/07 00:25:33;;;;;;;10.93;8.63;;;6.40;99.90;;;5.56;100.00;97658.81;5008063;28;20042;-70
2023/04/07 00:28:00;;;;;;;14.07;9.15;;;6.40;99.90;;;5.51;100.00;97650.34;5002922;28;20063;-70
2023/04/07 00:30:27;;;;;;;12.93;8.00;;;6.40;99.90;;;5.56;100.00;97655.38;5004354;28;20072;-70
2023/04/07 00:32:55;;;;;;;12.35;8.65;;;6.40;99.90;;;5.52;100.00;97646.91;5002153;28;20432;-70
2023/04/07 00:35:22;;;;;;;12.43;8.73;;;6.40;99.90;;;5.57;100.00;97647.63;4987479;28;20041;-69
2023/04/07 00:37:50;;;;;;;11.98;9.27;;;6.30;99.90;;;5.45;100.00;97643.59;5007072;28;20054;-70
2023/04/07 00:40:17;;;;;;;12.20;8.85;;;6.30;99.90;;;5.43;100.00;97642.78;5006986;28;20049;-69
2023/04/07 00:42:46;;;;;;;14.23;9.10;;;6.40;99.90;;;5.49;100.00;97641.78;5004236;28;20505;-70
2023/04/07 00:45:13;;;;;;;12.73;7.93;;;6.30;99.90;;;5.51;100.00;97634.03;5005671;28;20081;-70
2023/04/07 00:47:40;;;;;;;13.23;8.77;;;6.40;99.90;;;5.53;100.00;97637.44;5000727;28;20495;-69
2023/04/07 00:50:08;;;;;;;10.73;8.02;;;6.30;99.90;;;5.50;100.00;97625.47;5007659;28;20064;-69
2023/04/07 00:52:35;;;;;;;11.50;7.90;;;6.30;99.90;;;5.47;100.00;97630.69;5004396;28;20041;-70
2023/04/07 00:55:02;;;;;;;13.65;9.20;;;6.30;99.90;;;5.38;100.00;97626.59;5000234;28;20061;-70
2023/04/07 00:57:30;;;;;;;12.68;8.93;;;6.30;99.90;;;5.45;100.00;97611.84;5005298;28;20052;-70
2023/04/07 00:59:57;;;;;;;14.10;9.45;;;6.20;99.90;;;5.38;100.00;97602.56;5008107;28;20133;-70
2023/04/07 01:02:40;;;;;;;12.90;9.10;;;6.10;99.90;;;5.40;100.00;97605.94;5004897;28;20136;-69
2023/04/07 01:05:20;;;;;;;13.18;9.45;;;6.10;99.90;;;5.29;100.00;97597.59;5006861;28;20080;-70
2023/04/07 01:08:07;;;;;;;13.68;9.10;;;6.00;99.90;;;5.27;100.00;97605.38;5005514;28;20445;-70
2023/04/07 01:10:50;;;;;;;17.13;10.02;;;5.90;99.90;;;5.23;100.00;97596.03;5000792;28;20050;-71
2023/04/07 01:13:33;;;;;;;14.75;9.88;;;5.90;99.90;;;5.09;100.00;97598.06;5008997;28;20722;-70
2023/04/07 01:16:08;;;;;;;18.45;11.23;;;5.90;99.90;;;5.02;100.00;97595.59;4997762;28;20054;-69
2023/04/07 01:18:38;;;;;;;14.77;10.98;;;5.90;99.90;;;5.00;100.00;97592.19;5000289;28;20077;-70
2023/04/07 01:21:15;;;;;;;15.30;10.15;;;5.90;99.90;;;5.06;100.00;97591.22;5003427;28;20054;-69
2023/04/07 01:24:03;;;;;;;13.18;10.27;;;5.90;99.90;;;4.97;100.00;97599.13;5005230;28;20563;-69
2023/04/07 01:26:32;;;;;;;17.80;10.10;;;5.90;99.90;;;5.06;100.00;97593.78;5006415;28;20190;-70
2023/04/07 01:29:46;;;;;;;15.05;10.07;;;5.90;99.90;;;5.17;100.00;97591.00;5005478;28;20046;-69
2023/04/07 01:32:14;;;;;;;15.65;10.43;;;5.90;99.90;;;5.19;100.00;97596.97;4916144;29;20087;-70
2023/04/07 01:34:42;;;;;;;16.20;10.43;;;5.90;99.90;;;5.17;100.00;97586.69;4923251;29;20048;-70
2023/04/07 01:37:10;;;;;;;15.10;10.63;;;5.90;99.90;;;5.21;100.00;97588.31;4964893;28;20087;-68
2023/04/07 01:39:39;;;;;;;18.50;10.15;;;6.00;99.90;;;5.23;100.00;97590.88;5004959;28;20050;-69
2023/04/07 01:42:06;;;;;;;18.27;10.70;;;6.00;99.90;;;5.31;100.00;97588.13;5003336;28;20042;-70
2023/04/07 01:44:34;;;;;;;14.65;10.52;;;6.00;99.90;;;5.28;100.00;97590.78;5006524;28;20531;-70
2023/04/07 01:47:02;;;;;;;13.57;9.98;;;6.10;99.90;;;5.30;100.00;97589.03;4987574;28;20076;-70
2023/04/07 01:49:30;;;;;;;13.02;9.50;;;6.10;99.90;;;5.32;100.00;97584.69;5001056;28;20590;-70
2023/04/07 01:51:59;;;;;;;11.70;9.60;;;6.10;99.90;;;5.31;100.00;97578.69;4999820;28;20085;-70
2023/04/07 01:54:27;;;;;;;16.67;9.48;;;6.10;99.90;;;5.31;100.00;97573.53;4989597;28;20440;-70
2023/04/07 01:56:55;;;;;;;16.48;9.55;;;6.10;99.90;;;5.33;100.00;97578.66;5005336;28;20049;-70
2023/04/07 01:59:22;;;;;;;19.33;11.40;;;6.00;99.90;;;5.13;100.00;97569.66;5005247;28;20061;-70
2023/04/07 02:01:50;;;;;;;17.00;11.00;;;6.00;99.90;;;5.10;100.00;97571.44;5004503;28;20121;-69
2023/04/07 02:05:04;;;;;;;15.57;10.82;;;5.90;99.90;;;5.01;100.00;97565.56;5004740;28;20085;-70
2023/04/07 02:08:00;;;;;;;16.23;9.70;;;5.90;99.90;;;4.93;100.00;97571.78;4930193;29;20057;-70
2023/04/07 02:10:29;;;;;;;14.60;10.77;;;5.90;99.90;;;4.99;100.00;97571.63;5002605;28;20045;-70
2023/04/07 02:12:59;;;;;;;13.20;9.15;;;5.90;99.90;;;5.06;100.00;97575.78;5004044;28;20068;-70
2023/04/07 02:15:27;;;;;;;14.40;10.40;;;5.90;99.90;;;5.07;100.00;97579.22;5002750;28;20124;-69
2023/04/07 02:17:57;;;;;;;14.60;9.82;;;5.80;99.90;;;5.03;100.00;97573.28;5003789;28;20061;-70
2023/04/07 02:20:24;;;;;;;13.30;10.13;;;5.80;99.90;;;4.86;100.00;97565.91;5001685;28;20077;-69
2023/04/07 02:22:52;;;;;;;13.13;10.15;;;5.70;99.90;;;4.80;100.00;97566.88;4997521;28;20054;-71
2023/04/07 02:25:27;;;;;;;14.73;10.43;;;5.70;99.90;;;4.70;100.00;97564.50;5004812;28;20046;-69
2023/04/07 02:27:57;;;;;;;12.88;9.77;;;5.70;99.90;;;4.63;100.00;97556.09;5001896;28;20050;-70
2023/04/07 02:30:26;;;;;;;15.38;9.20;;;5.60;99.90;;;4.71;100.00;97563.63;5005438;28;20631;-69
2023/04/07 02:32:54;;;;;;;15.43;10.95;;;5.50;99.90;;;4.56;100.00;97554.47;5004850;28;20053;-70
2023/04/07 02:35:21;;;;;;;15.10;11.02;;;5.40;99.90;;;4.44;100.00;97558.13;5004120;28;20050;-70
2023/04/07 02:37:49;;;;;;;15.65;12.20;;;5.30;99.90;;;4.29;100.00;97558.41;4984040;28;20089;-70
2023/04/07 02:40:16;;;;;;;16.10;11.00;;;5.30;99.90;;;4.33;100.00;97547.19;5004406;28;20524;-69
2023/04/07 02:42:44;;;;;;;12.02;8.90;;;5.30;99.90;;;4.31;100.00;97554.09;5003119;28;20053;-69
2023/04/07 02:45:11;;;;;;;15.18;11.15;;;5.30;99.90;;;4.31;100.00;97546.38;5004079;28;20106;-69
2023/04/07 02:47:39;;;;;;;13.73;10.52;;;5.30;99.90;;;4.25;100.00;97552.50;5005277;28;20140;-69
2023/04/07 02:50:06;;;;;;;13.13;9.88;;;5.30;99.90;;;4.22;100.00;97549.09;4987924;28;20084;-70
2023/04/07 02:52:34;;;;;;;13.27;10.77;;;5.20;99.90;;;4.09;100.00;97549.34;5003080;28;20053;-69
2023/04/07 02:55:02;;;;;;;14.02;9.85;;;5.20;99.90;;;4.16;100.00;97550.91;5003491;28;20050;-69
2023/04/07 02:57:29;;;;;;;15.27;11.23;;;5.20;99.90;;;4.18;100.00;97551.75;5004370;28;20048;-69
2023/04/07 02:59:56;;;;;;;16.17;10.32;;;5.20;99.90;;;4.22;100.00;97544.84;5003433;28;20091;-70
2023/04/07 03:02:24;;;;;;;12.95;9.80;;;5.10;99.90;;;3.93;100.00;97541.03;5003569;28;20476;-70
2023/04/07 03:04:52;;;;;;;12.93;9.73;;;5.00;99.90;;;4.07;100.00;97552.81;5003769;28;20519;-69
2023/04/07 03:07:19;;;;;;;11.40;8.98;;;4.90;99.90;;;4.17;100.00;97559.47;4999952;28;20661;-70
2023/04/07 03:09:46;;;;;;;16.92;11.30;;;4.90;99.90;;;4.18;100.00;97556.88;5002670;28;20061;-70
2023/04/07 03:12:13;;;;;;;14.00;11.02;;;5.00;99.90;;;4.26;100.00;97555.91;5004104;28;20130;-69
2023/04/07 03:14:40;;;;;;;13.15;10.50;;;5.10;99.90;;;4.32;100.00;97558.38;5008254;28;20477;-68
2023/04/07 03:17:07;;;;;;;12.55;9.77;;;5.10;99.90;;;4.47;100.00;97558.09;5008579;28;20136;-69
2023/04/07 03:19:35;;;;;;;16.48;10.65;;;5.20;99.90;;;4.50;100.00;97558.03;4993799;28;20050;-70
2023/04/07 03:22:02;;;;;;;12.30;9.40;;;5.30;99.90;;;4.59;100.00;97555.28;4991064;28;20512;-68
2023/04/07 03:24:29;;;;;;;14.48;10.32;;;5.30;99.90;;;4.42;100.00;97551.31;5005960;28;20063;-70
2023/04/07 03:26:56;;;;;;;13.23;9.77;;;5.20;99.90;;;4.54;100.00;97553.69;5008999;28;20052;-69
2023/04/07 03:29:25;;;;;;;11.30;9.13;;;5.30;99.90;;;4.69;100.00;97547.38;5007542;28;20077;-69
2023/04/07 03:31:55;;;;;;;13.32;10.32;;;5.30;99.90;;;4.68;100.00;97551.69;5003547;28;20046;-70
2023/04/07 03:34:22;;;;;;;14.18;9.90;;;5.40;99.90;;;4.81;100.00;97545.44;5006000;28;20045;-70
2023/04/07 03:36:50;;;;;;;14.88;11.13;;;5.50;99.90;;;4.67;100.00;97544.00;5007704;28;20085;-70
2023/04/07 03:39:17;;;;;;;17.25;10.85;;;5.50;99.90;;;4.70;100.00;97543.94;5007844;28;20140;-69
2023/04/07 03:41:44;;;;;;;12.80;10.57;;;5.60;99.90;;;4.70;100.00;97533.63;5008093;28;20677;-69
2023/04/07 03:44:11;;;;;;;15.10;10.82;;;5.60;99.90;;;4.72;100.00;97537.91;5007116;28;20049;-70
2023/04/07 03:46:38;;;;;;;12.75;9.80;;;5.70;99.90;;;4.90;100.00;97544.38;5001222;28;20061;-70
2023/04/07 03:49:06;;;;;;;16.33;11.82;;;5.70;99.90;;;4.97;100.00;97551.13;5007938;28;20061;-69
2023/04/07 03:51:33;;;;;;;18.80;13.13;;;5.70;99.90;;;4.92;100.00;97545.19;4989686;28;20046;-70
2023/04/07 03:54:00;;;;;;;19.73;13.25;;;5.70;99.90;;;4.84;100.00;97549.66;5003755;28;20054;-70
2023/04/07 03:56:27;;;;;;;14.25;10.55;;;5.70;99.90;;;5.12;100.00;97546.53;5007833;28;20055;-70
2023/04/07 03:58:55;;;;;;;16.10;12.60;;;5.70;99.90;;;5.08;100.00;97547.44;5005462;28;20054;-69
2023/04/07 04:01:22;;;;;;;14.30;12.40;;;5.70;99.90;;;4.93;100.00;97541.75;5005425;28;20062;-70
2023/04/07 04:03:49;;;;;;;14.30;10.77;;;5.60;99.90;;;4.90;100.00;97540.97;5006428;28;20128;-69
2023/04/07 04:06:18;;;;;;;17.88;12.73;;;5.60;99.90;;;4.75;100.00;97532.69;4991919;28;20081;-70
2023/04/07 04:08:45;;;;;;;17.25;11.88;;;5.60;99.90;;;4.72;100.00;97530.19;5004427;28;20050;-70
2023/04/07 04:11:12;;;;;;;14.00;11.00;;;5.50;99.90;;;4.65;100.00;97531.16;5007111;28;20049;-70
2023/04/07 04:13:39;;;;;;;16.42;11.45;;;5.50;99.90;;;4.68;100.00;97532.84;5007603;28;20629;-70
2023/04/07 04:16:07;;;;;;;21.88;14.57;;;5.40;99.90;;;4.63;100.00;97540.66;5005598;28;20048;-70
2023/04/07 04:18:38;;;;;;;17.58;12.15;;;5.30;99.90;;;4.56;100.00;97542.50;5006834;28;20042;-69
2023/04/07 04:21:07;;;;;;;17.27;11.25;;;5.30;99.90;;;4.48;100.00;97540.94;5005435;28;20065;-70
2023/04/07 04:23:34;;;;;;;15.45;11.57;;;5.20;99.90;;;4.33;100.00;97536.91;5004942;28;20046;-69
2023/04/07 04:26:02;;;;;;;15.32;11.73;;;5.20;99.90;;;4.28;100.00;97539.56;5006767;28;20050;-70
2023/04/07 04:28:30;;;;;;;17.02;11.00;;;5.10;99.90;;;4.35;100.00;97543.72;5003829;28;20058;-69
2023/04/07 04:30:57;;;;;;;14.73;11.40;;;5.20;99.90;;;4.39;100.00;97547.09;5001260;28;20076;-70
2023/04/07 04:33:24;;;;;;;20.92;14.27;;;5.10;99.90;;;4.26;100.00;97546.47;5001843;28;20121;-69
2023/04/07 04:35:51;;;;;;;29.08;24.45;;;5.10;99.90;;;4.29;100.00;97548.13;5005217;28;20358;-68
2023/04/07 04:38:18;;;;;;;24.90;19.88;;;5.00;99.90;;;4.22;100.00;97541.41;5004044;28;20089;-70
2023/04/07 04:40:45;;;;;;;23.70;18.35;;;5.00;99.90;;;4.12;100.00;97544.13;5006292;28;20496;-69
2023/04/07 04:43:12;;;;;;;17.65;13.48;;;5.00;99.90;;;4.10;100.00;97547.59;5005901;28;20057;-70
2023/04/07 04:45:39;;;;;;;18.45;11.45;;;4.90;99.90;;;4.12;100.00;97546.69;5003629;28;20049;-69
2023/04/07 04:48:07;;;;;;;21.38;14.32;;;4.80;99.90;;;3.98;100.00;97546.94;5003649;28;20049;-70
2023/04/07 04:50:35;;;;;;;15.68;12.43;;;4.80;99.90;;;4.03;100.00;97549.44;5002859;28;20050;-69
2023/04/07 04:53:02;;;;;;;17.23;13.25;;;4.70;99.90;;;3.97;100.00;97550.41;5006931;28;20067;-70
2023/04/07 04:55:29;;;;;;;23.55;16.00;;;4.60;99.90;;;3.84;100.00;97546.34;5006882;28;20054;-70
2023/04/07 04:57:56;;;;;;;20.10;14.05;;;4.60;99.90;;;3.76;100.00;97546.47;5001780;28;20052;-69
2023/04/07 05:00:24;;;;;;;18.85;13.63;;;4.60;99.90;;;3.76;100.00;97543.91;4999543;28;20065;-69
2023/04/07 05:02:51;;;;;;;17.65;12.20;;;4.60;99.90;;;3.84;100.00;97542.94;5005230;28;20155;-70
2023/04/07 05:05:18;;;;;;;16.83;13.02;;;4.70;99.90;;;3.86;100.00;97538.63;5004422;28;20060;-69
2023/04/07 05:07:45;;;;;;;21.33;15.13;;;4.70;99.90;;;3.88;100.00;97534.31;5001316;28;20089;-70
2023/04/07 05:10:13;;;;;;;20.83;15.65;;;4.60;99.90;;;3.87;100.00;97533.44;5005210;28;20513;-70
2023/04/07 05:12:40;;;;;;;19.65;14.48;;;4.70;99.90;;;3.94;100.00;97537.59;4990222;28;20042;-69
2023/04/07 05:15:08;;;;;;;21.23;14.93;;;4.80;99.90;;;3.98;100.00;97534.09;4989114;28;20073;-70
2023/04/07 05:17:35;;;;;;;22.80;16.00;;;4.80;99.90;;;3.90;100.00;97535.97;5005715;28;20483;-70
2023/04/07 05:20:05;;;;;;;24.70;15.15;;;4.80;99.90;;;3.95;100.00;97538.47;4999781;28;20061;-70
2023/04/07 05:22:32;;;;;;;19.70;14.15;;;4.90;99.90;;;4.06;100.00;97538.25;5003624;28;20586;-70
2023/04/07 05:24:59;;;;;;;16.73;13.43;;;4.90;99.90;;;4.22;100.00;97537.13;4989485;28;20053;-69
2023/04/07 05:27:26;;;;;;;16.05;13.25;;;5.00;99.90;;;4.33;100.00;97537.78;5002718;28;20081;-69
2023/04/07 05:29:53;;;;;;;14.90;10.43;;;5.10;99.90;;;4.34;100.00;97536.06;5006185;28;20069;-69
2023/04/07 05:32:20;;;;;;;21.67;13.98;;;5.20;99.90;;;4.53;100.00;97531.41;5004754;28;20566;-71
2023/04/07 05:34:47;;;;;;;18.02;13.60;;;5.20;99.90;;;4.52;100.00;97538.28;5003900;28;20057;-70
2023/04/07 05:37:15;;;;;;;18.55;12.85;;;5.20;99.90;;;4.61;100.00;97535.53;5002803;28;20042;-69
2023/04/07 05:39:42;;;;;;;16.08;11.18;;;5.30;99.90;;;4.79;100.00;97538.63;5002506;28;20564;-69
2023/04/07 05:42:09;;;;;;;14.05;10.65;;;5.40;99.90;;;4.92;100.00;97534.91;4998137;28;20438;-69
2023/04/07 05:44:36;;;;;;;15.52;10.57;;;5.60;99.90;;;5.05;100.00;97537.25;4998721;28;20428;-69
2023/04/07 05:47:07;;;;;;;13.23;8.90;;;5.60;99.90;;;5.21;100.00;97531.72;5005905;28;20818;-69
2023/04/07 05:49:35;;;;;;;17.33;10.70;;;5.80;99.90;;;5.14;100.00;97529.31;5002140;28;20061;-70
2023/04/07 05:52:02;;;;;;;14.25;9.65;;;5.80;99.90;;;5.15;100.00;97529.28;5002448;28;20208;-70
2023/04/07 05:54:29;;;;;;;18.55;9.95;;;5.90;99.90;;;5.23;100.00;97521.41;5004719;28;20133;-70
2023/04/07 05:56:56;;;;;;;14.95;9.60;;;5.90;99.90;;;5.12;100.00;97528.50;5002143;28;20133;-70
2023/04/07 05:59:23;;;;;;;14.07;9.80;;;6.00;99.90;;;5.14;100.00;97534.47;5004913;28;20044;-69
2023/04/07 06:01:50;;;;;;;16.85;10.43;;;6.00;99.90;;;5.03;100.00;97530.38;5003514;28;20056;-70
2023/04/07 06:04:17;;;;;;;16.33;11.10;;;6.00;99.90;;;4.95;100.00;97539.13;5002327;28;20054;-69
2023/04/07 06:06:45;;;;;;;23.73;11.13;;;6.00;99.90;;;4.95;100.00;97547.72;5001538;28;20141;-70
2023/04/07 06:09:12;;;;;;;15.25;11.77;;;5.90;99.90;;;4.97;100.00;97548.53;5004253;28;20444;-69
2023/04/07 06:11:39;;;;;;;18.08;12.63;;;5.90;99.90;;;5.15;100.00;97552.44;5003390;28;20053;-70
2023/04/07 06:14:06;;;;;;;17.30;11.18;;;5.90;99.90;;;5.43;100.00;97555.25;5001659;28;20520;-69
2023/04/07 06:16:33;;;;;;;17.95;12.23;;;5.90;99.90;;;5.40;100.00;97557.03;5001165;28;20714;-69
2023/04/07 06:19:00;;;;;;;25.88;14.10;;;5.90;99.90;;;5.29;100.00;97554.72;4999093;28;20149;-68
2023/04/07 06:21:27;;;;;;;19.27;12.55;;;5.90;99.90;;;5.51;100.00;97560.22;4999803;28;20045;-70
2023/04/07 06:23:54;;;;;;;19.88;12.70;;;6.00;99.90;;;5.58;100.00;97560.94;5002760;28;20050;-70
2023/04/07 06:26:22;;;;;;;18.63;12.55;;;6.00;99.90;;;5.58;100.00;97556.63;5000496;28;20046;-69
2023/04/07 06:28:49;;;;;;;19.35;13.55;;;6.00;99.90;;;5.66;100.00;97552.16;5001452;28;20053;-70
2023/04/07 06:31:17;;;;;;;18.38;12.05;;;6.10;99.90;;;5.79;100.00;97562.16;5002459;28;20053;-70
2023/04/07 06:33:45;;;;;;;20.48;12.30;;;6.10;99.90;;;5.81;100.00;97555.25;5002125;28;20077;-69
2023/04/07 06:36:12;;;;;;;22.50;12.77;;;6.20;99.90;;;5.78;100.00;97553.59;4999502;28;20165;-70
2023/04/07 06:38:39;;;;;;;19.85;13.20;;;6.20;99.90;;;6.04;100.00;97550.44;4988090;28;20046;-70
2023/04/07 06:41:10;;;;;;;23.67;14.27;;;6.40;99.90;;;5.97;100.00;97555.75;4998866;28;20061;-70
2023/04/07 06:43:37;;;;;;;20.30;13.27;;;6.60;99.90;;;6.22;100.00;97550.84;5002505;28;20060;-70
2023/04/07 06:46:04;;;;;;;21.25;12.98;;;6.80;99.90;;;6.26;100.00;97544.72;5003438;28;20057;-69
2023/04/07 06:48:31;;;;;;;18.92;12.68;;;6.80;99.90;;;6.44;100.00;97546.81;5002859;28;20049;-69
2023/04/07 06:50:59;;;;;;;18.80;13.10;;;6.90;99.90;;;6.58;100.00;97546.44;4995025;28;20049;-69
2023/04/07 06:53:26;;;;;;;21.30;14.18;;;7.00;99.90;;;6.58;100.00;97549.03;5001886;28;20046;-69
2023/04/07 06:56:10;;;;;;;24.20;14.75;;;7.20;99.90;;;6.49;100.00;97547.53;5002789;28;20077;-70
2023/04/07 06:58:37;;;;;;;22.48;15.27;;;7.20;99.90;;;6.46;100.00;97545.03;5000726;28;20084;-70
2023/04/07 07:01:05;;;;;;;17.42;12.35;;;7.20;99.90;;;6.50;100.00;97550.97;5002413;28;20046;-70
2023/04/07 07:03:32;;;;;;;22.30;15.32;;;7.10;99.90;;;6.52;100.00;97544.03;5004450;28;20053;-70
2023/04/07 07:06:01;;;;;;;24.85;16.58;;;7.10;99.90;;;6.54;100.00;97549.16;5002466;28;20783;-69
2023/04/07 07:08:29;;;;;;;20.80;14.98;;;7.20;99.90;;;6.58;100.00;97554.19;5002854;28;20053;-70
2023/04/07 07:10:57;;;;;;;23.75;15.68;;;7.30;99.90;;;6.64;100.00;97550.59;5001959;28;20045;-69
2023/04/07 07:13:25;;;;;;;21.95;14.77;;;7.30;99.90;;;6.48;100.00;97555.31;4999668;28;20069;-70
2023/04/07 07:15:52;;;;;;;20.35;14.52;;;7.30;99.90;;;6.67;100.00;97553.09;5001962;28;20057;-70
2023/04/07 07:18:19;;;;;;;24.55;15.85;;;7.40;99.90;;;6.69;100.00;97559.06;5011493;28;20046;-69
2023/04/07 07:20:47;;;;;;;26.10;17.88;;;7.40;99.90;;;6.53;100.00;97550.03;5001676;28;20050;-70
2023/04/07 07:23:14;;;;;;;21.13;15.45;;;7.40;99.90;;;6.55;100.00;97543.97;5001711;28;20058;-70
2023/04/07 07:25:41;;;;;;;27.02;17.75;;;7.40;99.90;;;6.65;100.00;97549.69;4998093;28;20050;-70
2023/04/07 07:28:08;;;;;;;30.23;17.50;;;7.20;99.90;;;6.69;100.00;97549.56;5000603;28;20520;-68
2023/04/07 07:30:38;;;;;;;24.63;17.20;;;7.30;99.90;;;6.87;100.00;97565.44;5000744;28;20061;-70
2023/04/07 07:33:05;;;;;;;26.88;16.63;;;7.40;99.90;;;6.64;100.00;97560.91;4998646;28;20085;-70
2023/04/07 07:35:32;;;;;;;20.10;14.57;;;7.40;99.90;;;6.67;100.00;97559.09;5005568;28;20042;-69
2023/04/07 07:38:00;;;;;;;24.40;15.45;;;7.50;99.90;;;6.55;100.00;97563.75;5005762;28;20054;-70
2023/04/07 07:40:27;;;;;;;23.85;15.95;;;7.40;99.90;;;6.64;100.00;97563.50;5003522;28;20240;-71
2023/04/07 07:42:54;;;;;;;19.52;12.68;;;7.40;99.90;;;6.94;100.00;97564.38;5003968;28;20145;-70
2023/04/07 07:45:21;;;;;;;22.92;13.93;;;7.50;99.90;;;7.01;100.00;97565.06;4984923;28;20157;-71
2023/04/07 07:47:48;;;;;;;24.75;14.90;;;7.60;99.90;;;7.04;100.00;97572.69;5002282;28;20136;-71
2023/04/07 07:50:15;;;;;;;21.67;13.98;;;7.70;99.90;;;7.28;100.00;97569.41;5000885;28;20119;-71
2023/04/07 07:52:42;;;;;;;25.45;17.45;;;7.60;99.90;;;6.95;100.00;97560.91;5003133;28;20064;-70
2023/04/07 07:55:10;;;;;;;24.75;14.35;;;7.50;99.90;;;7.15;100.00;97572.41;5002622;28;20046;-70
2023/04/07 07:57:37;;;;;;;25.63;16.73;;;7.40;99.90;;;6.84;100.00;97565.50;5005793;28;20066;-70
2023/04/07 08:00:05;;;;;;;24.15;15.45;;;7.40;99.90;;;6.81;100.00;97570.75;4993648;28;20054;-70
2023/04/07 08:02:32;;;;;;;24.25;14.82;;;7.40;99.90;;;6.81;100.00;97569.03;5002026;28;20319;-70
2023/04/07 08:05:00;;;;;;;25.30;15.63;;;7.50;99.90;;;6.88;100.00;97580.84;5007049;28;20057;-70
2023/04/07 08:07:27;;;;;;;27.60;15.95;;;7.50;99.90;;;6.82;100.00;97581.06;5005029;28;20093;-70
2023/04/07 08:09:54;;;;;;;28.30;16.48;;;7.60;99.90;;;6.87;100.00;97589.50;5005833;28;20080;-70
2023/04/07 08:12:21;;;;;;;25.10;15.48;;;7.60;99.90;;;7.09;100.00;97597.50;5006469;28;20136;-70
2023/04/07 08:14:49;;;;;;;21.52;14.57;;;7.60;99.90;;;7.37;100.00;97595.84;5003447;28;20057;-71
2023/04/07 08:17:16;;;;;;;23.35;16.48;;;7.50;99.90;;;7.17;100.00;97591.28;5005255;28;20462;-70
2023/04/07 08:19:43;;;;;;;23.98;15.38;;;7.50;99.90;;;7.16;100.00;97595.59;5005561;28;20267;-69
2023/04/07 08:22:10;;;;;;;22.33;14.68;;;7.60;99.90;;;7.38;100.00;97592.38;5006510;28;20049;-70
2023/04/07 08:24:37;;;;;;;24.60;14.38;;;7.60;99.90;;;7.26;100.00;97594.44;5001610;28;20500;-68
2023/04/07 08:27:04;;;;;;;19.73;14.50;;;7.50;99.90;;;7.43;100.00;97595.66;5001683;28;20054;-70
2023/04/07 08:29:31;;;;;;;23.35;16.25;;;7.60;99.90;;;7.18;100.00;97601.53;4999587;28;20056;-70
2023/04/07 08:31:59;;;;;;;23.85;15.43;;;7.70;99.90;;;7.28;100.00;97604.72;5003464;28;20474;-69
2023/04/07 08:34:26;;;;;;;26.08;16.88;;;7.70;99.90;;;7.07;100.00;97609.59;5002730;28;20507;-71
2023/04/07 08:36:53;;;;;;;18.92;15.52;;;7.70;99.90;;;7.27;100.00;97614.19;5006312;28;20062;-69
2023/04/07 08:39:21;;;;;;;22.67;16.13;;;7.80;99.90;;;7.43;100.00;97618.91;5004193;28;20042;-70
2023/04/07 08:41:50;;;;;;;23.90;17.63;;;7.80;99.90;;;7.28;100.00;97625.38;5001342;28;20061;-69
2023/04/07 08:44:20;;;;;;;23.60;15.30;;;7.90;99.90;;;7.19;100.00;97620.47;4990910;28;20129;-70
2023/04/07 08:46:50;;;;;;;23.27;16.05;;;7.90;99.90;;;7.30;100.00;97624.44;5005212;28;20509;-70
2023/04/07 08:49:18;;;;;;;26.20;18.92;;;7.90;99.90;;;7.36;100.00;97636.31;5002348;28;20045;-70
2023/04/07 08:51:50;;;;;;;24.83;17.00;;;7.90;99.90;;;7.63;100.00;97634.66;5005400;28;20064;-69
2023/04/07 08:54:17;;;;;;;25.85;15.77;;;8.00;99.90;;;7.75;100.00;97626.56;5008053;28;20042;-71
2023/04/07 08:56:45;;;;;;;20.75;14.38;;;8.00;99.90;;;7.63;100.00;97629.50;5004819;28;20088;-70
2023/04/07 08:59:14;;;;;;;20.98;13.73;;;8.20;99.90;;;7.84;100.00;97632.31;5003695;28;20057;-70
2023/04/07 09:01:41;;;;;;;19.90;14.82;;;8.10;99.90;;;8.03;100.00;97624.81;5004444;28;20050;-71
2023/04/07 09:04:09;;;;;;;20.38;14.95;;;8.10;99.90;;;7.95;100.00;97620.75;5003413;28;20505;-70
2023/04/07 09:06:37;;;;;;;22.33;13.68;;;8.00;99.90;;;8.43;100.00;97613.25;5006110;28;20077;-70
2023/04/07 09:09:05;;;;;;;20.52;14.60;;;8.00;99.90;;;8.22;100.00;97619.94;5004869;28;20061;-70
2023/04/07 09:11:38;;;;;;;22.77;15.40;;;8.20;99.90;;;7.90;100.00;97627.81;5006540;28;20074;-71
2023/04/07 09:14:06;;;;;;;28.27;18.50;;;8.20;99.90;;;7.67;100.00;97623.34;5005994;28;20053;-70
2023/04/07 09:16:34;;;;;;;25.80;15.00;;;8.20;99.90;;;7.83;100.00;97630.63;5005829;28;20389;-70
2023/04/07 09:19:01;;;;;;;19.73;14.05;;;8.10;99.90;;;7.98;100.00;97632.72;4998225;28;20121;-71
2023/04/07 09:21:51;;;;;;;23.73;17.77;;;8.10;99.90;;;7.75;100.00;97639.47;5003528;28;20053;-69
2023/04/07 09:24:25;;;;;;;19.02;15.15;;;8.10;99.90;;;7.66;100.00;97641.47;5001021;28;20046;-71
2023/04/07 09:27:18;;;;;;;21.23;15.50;;;8.10;99.90;;;7.69;100.00;97647.41;4997235;28;20054;-71
2023/04/07 09:29:46;;;;;;;;;;;8.30;99.90;;;7.67;100.00;97659.50;5001183;28;20050;-71
2023/04/07 09:32:38;;;;;;;23.83;15.90;;;8.30;99.90;;;8.03;100.00;97658.44;5002338;28;19933;-71
2023/04/07 09:35:06;;;;;;;26.25;16.52;;;8.50;99.90;;;7.77;100.00;97657.50;5001215;28;20171;-70
2023/04/07 09:37:33;;;;;;;26.45;17.75;;;8.40;99.90;;;7.80;100.00;97653.97;4982890;28;20129;-70
2023/04/07 09:40:00;;;;;;;23.55;15.50;;;8.30;99.90;;;7.84;100.00;97653.00;4999961;28;20052;-71
2023/04/07 09:42:31;;;;;;;18.45;13.82;;;8.30;99.90;;;7.85;100.00;97655.53;5001078;28;20516;-71
2023/04/07 09:44:59;;;;;;;19.63;15.27;;;8.40;99.90;;;7.61;100.00;97669.19;5002308;28;20058;-71
2023/04/07 09:47:31;;;;;;;23.20;16.75;;;8.30;99.90;;;7.63;100.00;97668.25;5002653;28;20129;-70
2023/04/07 09:50:05;;;;;;;19.23;11.63;;;8.20;99.90;;;7.62;100.00;97668.28;5004211;28;20065;-69
2023/04/07 09:52:52;;;;;;;20.73;14.80;;;8.10;99.90;;;7.94;100.00;97662.16;5000636;28;20048;-70
2023/04/07 09:55:21;;;;;;;22.50;16.25;;;8.20;99.90;;;8.44;100.00;97654.59;5002594;28;20123;-71
2023/04/07 09:57:50;;;;;;;18.50;11.27;;;8.50;99.90;;;8.72;100.00;97654.50;5005281;28;20104;-71
2023/04/07 10:00:17;;;;;;;14.85;8.30;;;8.90;99.90;;;8.84;100.00;97639.44;4990377;28;20046;-71
2023/04/07 10:02:45;;;;;;;9.07;6.18;;;9.10;99.90;;;8.75;100.00;97632.84;5003378;28;20196;-70
2023/04/07 10:05:12;;;;;;;10.32;5.72;;;9.30;99.90;;;8.70;100.00;97620.06;4986885;28;20487;-70
2023/04/07 10:07:40;;;;;;;7.57;4.38;;;9.30;99.90;;;8.63;100.00;97613.41;5000767;28;20100;-70
2023/04/07 10:10:09;;;;;;;7.55;4.13;;;9.20;99.90;;;8.80;100.00;97610.22;5017776;28;20092;-70
2023/04/07 10:12:37;;;;;;;6.00;3.63;;;9.40;99.90;;;8.96;100.00;97607.94;5003025;28;20053;-70
2023/04/07 10:15:05;;;;;;;6.55;3.47;;;9.40;99.90;;;9.24;100.00;97601.75;5002543;28;20639;-70
2023/04/07 10:17:35;;;;;;;4.95;2.15;;;9.60;99.90;;;9.34;100.00;97593.59;5004243;28;20052;-70
2023/04/07 10:20:06;;;;;;;5.63;2.85;;;9.70;99.90;;;9.08;100.00;97584.22;5005032;28;20057;-69
2023/04/07 10:22:35;;;;;;;5.25;3.15;;;9.70;99.90;;;9.11;100.00;97588.44;4983610;28;20065;-70